Time;durP1;ratioP1;P1;durP2;ratioP2;P2;SDS_P1;SDS_P2;PMS_P1;PMS_P2;Temp;Humidity;BMP_temperature;BMP_pressure;BME280_temperature;BME280_humidity;BME280_pressure;Samples;Min_cycle;Max_cycle;Signal;HPM_P1;HPM_P2
2022/01/11 00:00:45;;;;;;;;;27.75;27.25;;;;;1.57;100.00;101379.03;6183803;23;12261;-71
2022/01/11 00:03:42;;;;;;;;;27.75;23.75;;;;;1.56;100.00;101366.47;6183721;23;11503;-71
2022/01/11 00:06:47;;;;;;;;;26.75;25.25;;;;;1.50;100.00;101367.50;6183543;23;11542;-71
2022/01/11 00:09:44;;;;;;;;;23.00;22.00;;;;;1.52;100.00;101374.34;6183527;23;11575;-71
2022/01/11 00:12:40;;;;;;;;;23.33;23.33;;;;;1.47;100.00;101371.56;6183797;23;11503;-71
2022/01/11 00:15:35;;;;;;;;;24.67;24.33;;;;;1.45;100.00;101365.53;6182889;23;11609;-71
2022/01/11 00:18:32;;;;;;;;;23.33;22.33;;;;;1.43;100.00;101375.03;6183937;23;11479;-71
2022/01/11 00:21:28;;;;;;;;;23.00;23.00;;;;;1.41;100.00;101377.19;6183794;23;11499;-71
2022/01/11 00:24:28;;;;;;;;;25.00;23.00;;;;;1.43;100.00;101372.31;6183351;23;11510;-71
2022/01/11 00:27:24;;;;;;;;;23.67;23.67;;;;;1.37;100.00;101380.41;6182553;23;11605;-72
2022/01/11 00:30:20;;;;;;;;;27.00;27.00;;;;;1.42;100.00;101376.94;6183778;23;11479;-71
2022/01/11 00:33:21;;;;;;;;;25.00;25.00;;;;;1.46;100.00;101374.53;6183379;23;11556;-73
2022/01/11 00:36:17;;;;;;;;;23.00;23.00;;;;;1.36;100.00;101384.22;6183237;23;11668;-71
2022/01/11 00:39:13;;;;;;;;;24.33;24.00;;;;;1.25;100.00;101379.72;6183473;23;11504;-71
2022/01/11 00:42:09;;;;;;;;;27.67;24.33;;;;;1.22;100.00;101376.66;6183428;23;11609;-71
2022/01/11 00:45:09;;;;;;;;;14.00;14.00;;;;;1.21;100.00;101375.84;6182867;23;11551;-71
2022/01/11 00:48:05;;;;;;;;;23.67;19.67;;;;;1.18;100.00;101362.72;6183321;23;11525;-71
2022/01/11 00:51:01;;;;;;;;;24.33;20.67;;;;;1.10;100.00;101368.63;6185521;23;11506;-71
2022/01/11 00:53:57;;;;;;;;;23.33;23.33;;;;;1.05;100.00;101363.09;6185386;23;11494;-72
2022/01/11 00:56:53;;;;;;;;;26.67;26.67;;;;;1.11;100.00;101360.19;6185510;23;8816;-71
2022/01/11 00:59:49;;;;;;;;;28.00;27.00;;;;;1.07;100.00;101363.66;6185301;23;8810;-71
2022/01/11 01:02:44;;;;;;;;;25.67;22.67;;;;;1.03;100.00;101366.06;6185345;23;8867;-71
2022/01/11 01:05:12;;;;;;;;;29.00;24.33;;;;;1.01;100.00;101364.69;6185896;23;11497;-71
2022/01/11 01:08:08;;;;;;;;;26.67;25.67;;;;;0.93;100.00;101357.75;6185240;23;8825;-71
2022/01/11 01:11:04;;;;;;;;;21.33;21.33;;;;;0.91;100.00;101367.22;6185346;23;8798;-71
2022/01/11 01:14:00;;;;;;;;;24.33;24.33;;;;;0.93;100.00;101356.94;6185188;23;8794;-71
2022/01/11 01:16:55;;;;;;;;;32.33;31.67;;;;;1.02;100.00;101369.88;6184828;23;11542;-71
2022/01/11 01:19:51;;;;;;;;;25.33;25.33;;;;;0.93;100.00;101365.13;6185049;23;11550;-71
2022/01/11 01:22:50;;;;;;;;;24.33;23.67;;;;;0.80;100.00;101374.44;6185001;23;8808;-71
2022/01/11 01:25:47;;;;;;;;;32.67;32.67;;;;;0.85;100.00;101369.09;6184468;23;8936;-72
2022/01/11 01:28:42;;;;;;;;;33.33;32.00;;;;;1.01;100.00;101372.84;6184833;23;9526;-72
2022/01/11 01:31:38;;;;;;;;;29.00;28.00;;;;;1.01;100.00;101379.13;6185177;23;8909;-72
2022/01/11 01:34:34;;;;;;;;;37.33;34.67;;;;;0.94;100.00;101381.19;6184981;23;8801;-72
2022/01/11 01:37:30;;;;;;;;;28.33;28.33;;;;;0.90;100.00;101379.22;6184971;23;8798;-72
2022/01/11 01:40:26;;;;;;;;;23.67;20.67;;;;;0.79;100.00;101387.22;6185460;23;9559;-73
2022/01/11 01:43:23;;;;;;;;;41.33;35.67;;;;;0.77;100.00;101381.22;6185119;23;8801;-72
2022/01/11 01:46:20;;;;;;;;;27.33;27.33;;;;;0.80;100.00;101382.63;6184602;23;8805;-72
2022/01/11 01:49:18;;;;;;;;;27.33;27.33;;;;;0.92;100.00;101374.31;6184919;23;9559;-72
2022/01/11 01:52:15;;;;;;;;;25.00;25.00;;;;;0.78;100.00;101382.88;6184957;23;8807;-72
2022/01/11 01:55:11;;;;;;;;;37.00;36.00;;;;;0.89;100.00;101380.28;6165255;23;9526;-71
2022/01/11 01:58:07;;;;;;;;;20.67;20.67;;;;;0.89;100.00;101381.09;6184594;23;8797;-71
2022/01/11 02:01:05;;;;;;;;;32.00;31.00;;;;;0.78;100.00;101373.88;6184692;23;8824;-72
2022/01/11 02:04:00;;;;;;;;;26.67;25.33;;;;;0.91;100.00;101373.50;6184940;23;8786;-73
2022/01/11 02:06:56;;;;;;;;;25.33;25.33;;;;;0.81;100.00;101376.91;6184462;23;8840;-71
2022/01/11 02:09:51;;;;;;;;;27.67;27.67;;;;;0.83;100.00;101369.31;6184878;23;11501;-72
2022/01/11 02:12:47;;;;;;;;;22.67;22.00;;;;;0.85;100.00;101370.97;6184682;23;11515;-72
2022/01/11 02:15:43;;;;;;;;;20.67;20.67;;;;;0.79;100.00;101373.63;6184401;23;11504;-72
2022/01/11 02:18:44;;;;;;;;;30.33;28.67;;;;;0.86;100.00;101388.97;6184563;23;8878;-72
2022/01/11 02:21:40;;;;;;;;;28.67;25.33;;;;;0.70;100.00;101386.00;6184596;23;8880;-70
2022/01/11 02:24:36;;;;;;;;;25.33;25.33;;;;;0.76;100.00;101378.72;6154600;23;8869;-72
2022/01/11 02:27:31;;;;;;;;;11.00;10.67;;;;;0.68;100.00;101384.59;6154714;23;8889;-71
2022/01/11 02:30:31;;;;;;;;;26.67;26.67;;;;;0.61;100.00;101381.19;6154848;23;8817;-71
2022/01/11 02:33:37;;;;;;;;;29.00;29.00;;;;;0.58;100.00;101376.25;6154861;23;8809;-71
2022/01/11 02:36:34;;;;;;;;;32.67;28.67;;;;;0.52;100.00;101378.91;6153668;23;8884;-72
2022/01/11 02:39:31;;;;;;;;;26.00;26.00;;;;;0.57;100.00;101372.72;6154554;23;8873;-72
2022/01/11 02:42:26;;;;;;;;;28.67;27.00;;;;;0.75;100.00;101383.34;6154633;23;8814;-72
2022/01/11 02:45:22;;;;;;;;;30.33;27.33;;;;;0.77;100.00;101386.66;6153134;23;8813;-71
2022/01/11 02:48:18;;;;;;;;;32.67;32.00;;;;;0.79;100.00;101389.97;6154151;23;11588;-72
2022/01/11 02:51:14;;;;;;;;;30.33;30.33;;;;;0.77;100.00;101392.13;6154468;23;8813;-72
2022/01/11 02:54:09;;;;;;;;;31.33;31.33;;;;;0.82;100.00;101389.44;6154482;23;8806;-72
2022/01/11 02:57:05;;;;;;;;;32.33;29.00;;;;;0.73;100.00;101384.69;6154493;23;8805;-72
2022/01/11 03:00:04;;;;;;;;;34.00;29.00;;;;;0.71;100.00;101384.94;6154182;23;12306;-72
2022/01/11 03:03:17;;;;;;;;;26.67;26.67;;;;;0.77;100.00;101386.66;6154396;23;8809;-71
2022/01/11 03:06:13;;;;;;;;;29.67;28.00;;;;;0.88;100.00;101389.53;6154857;23;8836;-73
2022/01/11 03:09:08;;;;;;;;;38.67;38.67;;;;;0.82;100.00;101399.50;6154331;23;8802;-73
2022/01/11 03:12:04;;;;;;;;;32.67;32.00;;;;;0.88;100.00;101408.59;6154068;23;8802;-73
2022/01/11 03:15:00;;;;;;;;;21.33;21.33;;;;;0.75;100.00;101412.47;6153981;23;8927;-72
2022/01/11 03:17:56;;;;;;;;;32.00;32.00;;;;;0.79;100.00;101413.63;6154156;23;9448;-72
2022/01/11 03:20:53;;;;;;;;;15.67;15.67;;;;;0.71;100.00;101419.50;6154411;23;8818;-72
2022/01/11 03:23:49;;;;;;;;;31.33;31.33;;;;;0.80;100.00;101418.84;6178858;23;11504;-72
2022/01/11 03:26:44;;;;;;;;;33.33;33.33;;;;;0.93;100.00;101417.69;6183642;23;8812;-72
2022/01/11 03:29:40;;;;;;;;;37.67;34.67;;;;;0.88;100.00;101422.22;6184063;23;8802;-72
2022/01/11 03:32:36;;;;;;;;;41.33;35.00;;;;;0.70;100.00;101426.84;6183931;23;8822;-72
2022/01/11 03:35:33;;;;;;;;;23.67;23.67;;;;;0.65;100.00;101429.47;6183824;23;8908;-73
2022/01/11 03:38:30;;;;;;;;;26.00;26.00;;;;;0.71;100.00;101430.41;6183835;23;9491;-72
2022/01/11 03:41:25;;;;;;;;;31.00;30.33;;;;;0.66;100.00;101427.56;6183993;23;8852;-71
2022/01/11 03:44:21;;;;;;;;;18.67;18.67;;;;;0.67;100.00;101426.50;6183927;23;8837;-71
2022/01/11 03:47:18;;;;;;;;;34.00;32.00;;;;;0.86;100.00;101429.81;6183668;23;8812;-73
2022/01/11 03:50:13;;;;;;;;;34.67;31.00;;;;;0.73;100.00;101428.25;6184906;23;8824;-72
2022/01/11 03:53:13;;;;;;;;;38.00;35.33;;;;;0.82;99.37;101437.63;6183997;23;8813;-72
2022/01/11 03:56:21;;;;;;;;;33.00;33.00;;;;;0.84;99.42;101435.50;6183723;23;8888;-72
2022/01/11 03:59:17;;;;;;;;;31.67;30.33;;;;;0.85;98.87;101439.06;6183560;23;8809;-72
2022/01/11 04:02:13;;;;;;;;;22.67;22.67;;;;;0.71;98.40;101444.00;6183743;23;8782;-72
2022/01/11 04:05:12;;;;;;;;;28.33;27.33;;;;;0.71;98.50;101444.84;6183808;23;11517;-73
2022/01/11 04:08:07;;;;;;;;;21.33;21.33;;;;;0.77;97.76;101446.56;6183468;23;12185;-72
2022/01/11 04:11:04;;;;;;;;;14.67;14.67;;;;;0.72;97.22;101445.66;6183806;23;11518;-72
2022/01/11 04:13:59;;;;;;;;;26.00;26.00;;;;;0.74;97.76;101440.78;6183574;23;11587;-72
2022/01/11 04:16:55;;;;;;;;;29.00;28.33;;;;;0.71;98.25;101455.72;6184481;23;11629;-72
2022/01/11 04:19:52;;;;;;;;;28.00;28.00;;;;;0.63;98.29;101445.25;6183511;23;8805;-72
2022/01/11 04:22:49;;;;;;;;;16.00;16.00;;;;;0.69;98.43;101448.84;6183837;23;8825;-72
2022/01/11 04:25:45;;;;;;;;;37.00;37.00;;;;;0.76;98.71;101444.91;6185361;23;11518;-71
2022/01/11 04:28:41;;;;;;;;;31.00;31.00;;;;;0.77;99.16;101446.56;6185261;23;8793;-71
2022/01/11 04:31:36;;;;;;;;;31.67;30.67;;;;;0.71;99.60;101447.56;6185663;23;8891;-71
2022/01/11 04:34:32;;;;;;;;;26.67;26.67;;;;;0.56;98.63;101441.84;6185604;23;8899;-72
2022/01/11 04:37:27;;;;;;;;;37.33;36.67;;;;;0.66;99.13;101446.63;6185333;23;8790;-72
2022/01/11 04:40:23;;;;;;;;;29.00;29.00;;;;;0.44;99.32;101441.91;6185318;23;8802;-73
2022/01/11 04:43:19;;;;;;;;;31.00;31.00;;;;;0.49;99.68;101438.44;6184806;23;9542;-71
2022/01/11 04:46:18;;;;;;;;;37.67;34.67;;;;;0.52;99.75;101446.13;6185309;23;8809;-72
2022/01/11 04:49:00;;;;;;;;;32.00;31.33;;;;;0.57;99.20;101446.22;6186601;23;8888;-71
2022/01/11 04:51:56;;;;;;;;;39.67;37.67;;;;;0.70;99.30;101453.25;6185487;23;8932;-72
2022/01/11 04:54:52;;;;;;;;;31.67;31.00;;;;;0.60;98.32;101451.16;6185464;23;8806;-71
2022/01/11 04:57:48;;;;;;;;;24.00;24.00;;;;;0.52;97.20;101452.38;6185239;23;9507;-71
2022/01/11 05:00:44;;;;;;;;;25.67;25.67;;;;;0.53;97.07;101445.88;6185197;23;8848;-72
2022/01/11 05:03:39;;;;;;;;;28.33;25.00;;;;;0.59;96.44;101459.56;6185383;23;8817;-72
2022/01/11 05:06:35;;;;;;;;;36.67;30.33;;;;;0.57;96.52;101459.81;6185053;23;8797;-72
2022/01/11 05:09:31;;;;;;;;;26.00;22.67;;;;;0.51;95.81;101461.63;6185175;23;8825;-72
2022/01/11 05:12:27;;;;;;;;;21.00;21.00;;;;;0.42;95.29;101459.56;6184703;23;9480;-71
2022/01/11 05:15:25;;;;;;;;;28.33;28.33;;;;;0.47;95.27;101468.66;6185123;23;8790;-73
2022/01/11 05:18:20;;;;;;;;;34.33;34.33;;;;;0.45;94.30;101461.78;6185118;23;8809;-72
2022/01/11 05:21:16;;;;;;;;;26.67;25.67;;;;;0.49;93.87;101468.41;6185185;23;8837;-72
2022/01/11 05:24:11;;;;;;;;;26.67;23.67;;;;;0.40;92.29;101472.59;6185609;23;8919;-71
2022/01/11 05:27:07;;;;;;;;;30.33;30.33;;;;;0.45;93.07;101475.38;6185728;23;8789;-71
2022/01/11 05:30:06;;;;;;;;;28.33;28.00;;;;;0.38;92.94;101475.53;6186010;23;8806;-71
2022/01/11 05:33:02;;;;;;;;;24.67;22.33;;;;;0.39;92.47;101481.81;6186019;23;8810;-71
2022/01/11 05:35:58;;;;;;;;;34.00;31.33;;;;;0.43;93.04;101480.25;6185679;23;8805;-72
2022/01/11 05:38:53;;;;;;;;;18.33;18.33;;;;;0.36;92.42;101494.00;6201060;23;8799;-73
2022/01/11 05:41:49;;;;;;;;;34.67;34.33;;;;;0.46;92.73;101486.06;6183934;23;11724;-73
2022/01/11 05:44:44;;;;;;;;;33.33;27.33;;;;;0.40;92.42;101489.75;6186013;23;8797;-73
2022/01/11 05:47:40;;;;;;;;;30.00;28.33;;;;;0.38;92.04;101497.31;6185838;23;8794;-73
2022/01/11 05:50:38;;;;;;;;;35.33;31.67;;;;;0.44;92.04;101498.22;6185679;23;8833;-73
2022/01/11 05:53:34;;;;;;;;;24.67;24.67;;;;;0.27;91.43;101501.72;6185460;23;8915;-72
2022/01/11 05:56:30;;;;;;;;;22.33;22.33;;;;;0.19;91.64;101512.19;6185940;23;8782;-73
2022/01/11 05:59:25;;;;;;;;;19.00;19.00;;;;;0.09;91.43;101504.66;6186312;23;9642;-73
2022/01/11 06:02:21;;;;;;;;;29.67;25.33;;;;;0.09;91.98;101504.66;6185767;23;11534;-74
2022/01/11 06:05:17;;;;;;;;;15.00;14.33;;;;;0.10;92.04;101509.00;6186062;23;8814;-73
2022/01/11 06:08:16;;;;;;;;;33.33;28.00;;;;;0.18;92.16;101513.25;6185614;23;8876;-73
2022/01/11 06:11:12;;;;;;;;;37.33;36.33;;;;;0.28;92.69;101519.72;6185737;23;8798;-73
2022/01/11 06:14:07;;;;;;;;;30.33;30.00;;;;;0.26;92.39;101530.00;6185464;23;8798;-73
2022/01/11 06:17:03;;;;;;;;;32.67;32.33;;;;;0.22;92.86;101520.66;6202634;23;8888;-73
2022/01/11 06:20:00;;;;;;;;;30.67;30.67;;;;;0.23;92.81;101527.78;6185765;23;8889;-73
2022/01/11 06:22:56;;;;;;;;;21.00;19.67;;;;;0.14;92.38;101533.81;6184972;23;8818;-72
2022/01/11 06:25:52;;;;;;;;;25.67;25.67;;;;;0.05;92.10;101530.66;6184376;23;8797;-72
2022/01/11 06:28:48;;;;;;;;;27.33;25.00;;;;;0.06;92.40;101537.75;6184449;23;8817;-72
2022/01/11 06:31:44;;;;;;;;;30.67;27.67;;;;;0.13;92.09;101538.44;6184719;23;8786;-73
2022/01/11 06:34:39;;;;;;;;;28.67;27.67;;;;;0.24;92.07;101540.31;6184561;23;8802;-73
2022/01/11 06:37:35;;;;;;;;;33.67;32.67;;;;;0.24;92.10;101543.03;6184241;23;8794;-73
2022/01/11 06:40:31;;;;;;;;;31.33;29.67;;;;;0.41;90.88;101551.25;6184386;23;8860;-71
2022/01/11 06:43:26;;;;;;;;;28.67;26.33;;;;;0.35;89.95;101554.94;6184377;23;8832;-73
2022/01/11 06:46:23;;;;;;;;;32.67;32.67;;;;;0.35;89.71;101559.56;6183748;23;9507;-73
2022/01/11 06:49:19;;;;;;;;;33.33;31.33;;;;;0.35;89.59;101559.56;6184232;23;8817;-73
2022/01/11 06:52:15;;;;;;;;;30.67;30.67;;;;;0.28;88.58;101563.25;6164526;23;8806;-73
2022/01/11 06:55:12;;;;;;;;;27.00;26.33;;;;;0.27;88.70;101566.22;6184082;23;8840;-72
2022/01/11 06:58:07;;;;;;;;;34.67;34.67;;;;;0.18;89.20;101576.66;6184187;23;8830;-73
2022/01/11 07:01:03;;;;;;;;;33.33;30.67;;;;;0.16;89.80;101580.69;6184005;23;8813;-73
2022/01/11 07:03:58;;;;;;;;;32.33;31.00;;;;;0.21;89.03;101586.22;6184233;23;8900;-73
2022/01/11 07:06:54;;;;;;;;;51.67;44.33;;;;;0.22;89.84;101590.59;6184232;23;8883;-74
2022/01/11 07:09:50;;;;;;;;;33.67;33.67;;;;;0.27;88.82;101594.25;6184260;23;8900;-74
2022/01/11 07:12:45;;;;;;;;;25.67;24.00;;;;;0.18;88.68;101592.97;6164674;23;8857;-74
2022/01/11 07:15:41;;;;;;;;;44.33;38.33;;;;;0.29;89.52;101602.16;6183188;23;8967;-73
2022/01/11 07:18:37;;;;;;;;;30.00;30.00;;;;;0.27;89.05;101593.41;6183612;23;8814;-74
2022/01/11 07:21:34;;;;;;;;;34.00;32.33;;;;;0.20;89.10;101600.88;6184117;23;8876;-74
2022/01/11 07:24:30;;;;;;;;;29.00;27.33;;;;;0.06;89.43;101608.47;6184042;23;8816;-74
2022/01/11 07:27:26;;;;;;;;;24.00;21.00;;;;;0.06;89.87;101613.91;6183921;23;8818;-73
2022/01/11 07:30:21;;;;;;;;;32.00;28.33;;;;;0.10;90.44;101615.09;6184042;23;8810;-73
2022/01/11 07:33:17;;;;;;;;;35.00;34.00;;;;;-0.07;90.22;101614.19;6184007;23;8879;-74
2022/01/11 07:36:13;;;;;;;;;19.67;19.33;;;;;0.11;90.54;101622.19;6184143;23;8817;-74
2022/01/11 07:39:12;;;;;;;;;32.33;29.67;;;;;0.19;90.15;101619.09;6183621;23;8824;-74
2022/01/11 07:42:08;;;;;;;;;31.33;29.00;;;;;0.15;90.27;101623.34;6164348;23;8790;-73
2022/01/11 07:45:04;;;;;;;;;30.33;30.33;;;;;0.17;89.66;101615.81;6164298;23;8805;-73
2022/01/11 07:48:00;;;;;;;;;28.00;28.00;;;;;0.12;89.63;101628.47;6183778;23;9492;-73
2022/01/11 07:50:56;;;;;;;;;33.67;31.67;;;;;0.11;90.22;101622.19;6183858;23;8820;-74
2022/01/11 07:53:52;;;;;;;;;25.67;23.33;;;;;0.16;89.21;101629.66;6183784;23;8802;-73
2022/01/11 07:56:48;;;;;;;;;24.33;23.67;;;;;0.05;89.31;101614.16;6183807;23;8786;-74
2022/01/11 07:59:43;;;;;;;;;15.00;15.00;;;;;-0.02;89.67;101619.72;6183687;23;8797;-74
2022/01/11 08:02:39;;;;;;;;;28.67;27.33;;;;;-0.08;89.69;101623.38;6183941;23;9484;-73
2022/01/11 08:05:35;;;;;;;;;26.67;25.33;;;;;-0.03;89.10;101627.06;6183652;23;8888;-73
2022/01/11 08:08:31;;;;;;;;;27.00;25.67;;;;;-0.18;88.94;101618.53;6183643;23;8832;-73
2022/01/11 08:11:27;;;;;;;;;28.67;28.00;;;;;-0.19;89.60;101637.81;6183724;23;8829;-73
2022/01/11 08:14:23;;;;;;;;;27.00;25.67;;;;;-0.18;89.47;101634.03;6183660;23;8802;-72
2022/01/11 08:17:18;;;;;;;;;33.33;32.33;;;;;-0.21;89.55;101634.50;6183576;23;9063;-73
2022/01/11 08:20:14;;;;;;;;;39.67;39.00;;;;;-0.12;89.92;101638.53;6183750;23;8786;-72
2022/01/11 08:23:14;;;;;;;;;23.67;23.67;;;;;-0.28;89.71;101632.72;6183585;23;8797;-75
2022/01/11 08:26:12;;;;;;;;;64.33;52.67;;;;;-0.09;89.58;101632.59;6165073;23;8816;-72
2022/01/11 08:29:07;;;;;;;;;43.33;42.33;;;;;-0.26;89.70;101629.78;6183605;23;8797;-73
2022/01/11 08:32:03;;;;;;;;;38.67;29.33;;;;;-0.15;89.33;101620.81;6183665;23;8782;-74
2022/01/11 08:34:59;;;;;;;;;9.00;7.00;;;;;-0.26;89.14;101620.78;6183550;23;8862;-74
2022/01/11 08:37:55;;;;;;;;;22.33;20.67;;;;;-0.23;89.24;101620.31;6183531;23;8892;-73
2022/01/11 08:40:50;;;;;;;;;26.67;25.33;;;;;-0.19;89.08;101616.06;6183406;23;8797;-75
2022/01/11 08:43:46;;;;;;;;;34.67;33.33;;;;;-0.31;88.50;101619.63;6164143;23;8916;-74
2022/01/11 08:46:43;;;;;;;;;43.00;34.00;;;;;-0.25;88.91;101615.13;6184672;23;8797;-75
2022/01/11 08:49:39;;;;;;;;;69.00;55.00;;;;;-0.09;89.05;101610.84;6162504;23;8809;-72
2022/01/11 08:52:34;;;;;;;;;59.67;52.00;;;;;-0.08;88.30;101605.19;6163510;23;8798;-72
2022/01/11 08:55:30;;;;;;;;;60.67;49.00;;;;;-0.02;87.80;101606.13;6164047;23;8790;-73
2022/01/11 08:58:25;;;;;;;;;69.00;52.00;;;;;0.06;90.87;101600.31;6182061;23;8802;-73
2022/01/11 09:01:21;;;;;;;;;87.00;65.33;;;;;0.21;91.34;101594.38;6181204;23;8938;-74
2022/01/11 09:04:17;;;;;;;;;36.00;34.00;;;;;0.36;91.89;101594.69;6183315;23;8785;-74
2022/01/11 09:07:13;;;;;;;;;59.67;50.33;;;;;0.16;92.08;101589.66;6183092;23;8801;-73
2022/01/11 09:10:09;;;;;;;;;52.67;46.67;;;;;0.26;92.26;101587.16;6183657;23;8972;-74
2022/01/11 09:13:04;;;;;;;;;32.33;30.00;;;;;-0.25;87.82;101587.94;6184076;23;8801;-72
2022/01/11 09:16:01;;;;;;;;;28.67;28.67;;;;;-0.28;88.19;101572.94;6184226;23;9514;-71
2022/01/11 09:18:56;;;;;;;;;34.33;29.67;;;;;-0.19;88.27;101586.16;6164593;23;8960;-71
2022/01/11 09:21:52;;;;;;;;;31.67;31.00;;;;;-0.14;89.68;101580.84;6184919;23;9496;-71
2022/01/11 09:24:48;;;;;;;;;24.00;21.00;;;;;-0.08;89.17;101579.88;6184264;23;8794;-74
2022/01/11 09:27:43;;;;;;;;;44.67;37.33;;;;;-0.02;90.36;101570.75;6183626;23;8786;-73
2022/01/11 09:30:39;;;;;;;;;69.00;49.67;;;;;0.18;89.63;101589.44;6185116;23;8809;-73
2022/01/11 09:33:35;;;;;;;;;31.67;31.67;;;;;0.11;87.90;101583.28;6185107;23;8794;-73
2022/01/11 09:36:31;;;;;;;;;36.67;36.67;;;;;0.07;88.63;101582.91;6184397;23;8793;-72
2022/01/11 09:39:26;;;;;;;;;18.33;18.00;;;;;-0.39;86.60;101583.78;6183510;23;8809;-70
2022/01/11 09:42:23;;;;;;;;;12.67;12.67;;;;;-0.31;87.35;101592.44;6184609;23;8805;-70
2022/01/11 09:45:20;;;;;;;;;40.67;37.33;;;;;-0.19;88.38;101597.84;6183854;23;8794;-73
2022/01/11 09:48:22;;;;;;;;;25.33;25.33;;;;;-0.28;87.16;101589.25;6184570;23;8810;-73
2022/01/11 09:51:17;;;;;;;;;28.67;25.33;;;;;0.14;88.65;101594.50;6183693;23;8810;-72
2022/01/11 09:54:13;;;;;;;;;19.33;18.33;;;;;-0.05;85.84;101587.56;6184451;23;8900;-72
2022/01/11 09:57:09;;;;;;;;;20.33;17.33;;;;;-0.14;84.94;101581.66;6184117;23;8832;-71
2022/01/11 10:00:09;;;;;;;;;27.33;27.33;;;;;-0.28;84.27;101581.09;6166302;23;8821;-72
2022/01/11 10:03:05;;;;;;;;;41.33;39.67;;;;;-0.45;84.59;101574.72;6184175;23;8789;-72
2022/01/11 10:06:15;;;;;;;;;27.00;26.33;;;;;-0.31;84.67;101578.84;6164587;23;9516;-71
2022/01/11 10:09:20;;;;;;;;;33.67;30.33;;;;;-0.44;84.88;101584.50;6183842;23;8805;-71
2022/01/11 10:12:18;;;;;;;;;21.00;21.00;;;;;-0.65;86.29;101579.66;6184188;23;8835;-73
2022/01/11 10:15:14;;;;;;;;;20.67;19.33;;;;;-0.47;86.58;101570.56;6164916;23;8801;-70
2022/01/11 10:18:10;;;;;;;;;18.33;16.00;;;;;-0.62;85.53;101568.28;6184148;23;8798;-72
2022/01/11 10:21:39;;;;;;;;;13.00;13.00;;;;;-0.67;85.99;101568.19;6147347;23;8924;-71
2022/01/11 10:24:42;;;;;;;;;11.67;9.33;;;;;-0.66;85.93;101562.53;6183974;23;8814;-73
2022/01/11 10:27:38;;;;;;;;;18.00;18.00;;;;;-0.65;86.93;101563.34;6184414;23;8802;-73
2022/01/11 10:30:35;;;;;;;;;26.00;21.33;;;;;-0.54;86.67;101562.50;6163355;23;8979;-71
2022/01/11 10:33:30;;;;;;;;;21.00;19.00;;;;;-0.80;86.40;101560.25;6183735;23;8809;-73
2022/01/11 10:36:45;;;;;;;;;16.67;16.67;;;;;-0.89;86.87;101555.16;6163916;23;8828;-72
2022/01/11 10:39:44;;;;;;;;;18.67;18.67;;;;;-0.80;87.05;101552.94;6184023;23;8798;-71
2022/01/11 10:42:51;;;;;;;;;19.00;18.00;;;;;-0.64;86.92;101562.28;6184008;23;8812;-72
2022/01/11 10:45:53;;;;;;;;;12.67;12.67;;;;;-0.63;85.97;101558.50;6184049;23;8805;-72
2022/01/11 10:48:48;;;;;;;;;24.00;22.00;;;;;-0.70;86.17;101563.22;6183178;23;9531;-72
2022/01/11 10:51:44;;;;;;;;;22.67;21.00;;;;;-0.68;86.54;101553.78;6183529;23;8838;-70
2022/01/11 10:54:42;;;;;;;;;15.00;15.00;;;;;-0.66;86.54;101564.41;6184102;23;8836;-71
2022/01/11 10:57:38;;;;;;;;;18.33;18.33;;;;;-0.67;86.45;101571.75;6183640;23;8794;-72
2022/01/11 11:00:33;;;;;;;;;19.67;19.67;;;;;-0.56;86.52;101573.63;6184160;23;8836;-72
2022/01/11 11:03:31;;;;;;;;;19.33;18.33;;;;;-0.63;86.18;101582.94;6164528;23;8782;-72
2022/01/11 11:06:27;;;;;;;;;25.67;20.33;;;;;-0.57;87.16;101582.00;6184079;23;8904;-72
2022/01/11 11:09:23;;;;;;;;;25.00;22.67;;;;;-0.45;86.34;101582.03;6184440;23;8786;-71
2022/01/11 11:12:22;;;;;;;;;21.33;21.33;;;;;-0.59;86.16;101586.88;6184042;23;8801;-72
2022/01/11 11:15:27;;;;;;;;;18.33;17.33;;;;;-0.63;85.62;101589.22;6184036;23;8797;-72
2022/01/11 11:18:47;;;;;;;;;18.67;18.67;;;;;-0.73;86.16;101582.72;6183814;23;8786;-72
2022/01/11 11:21:43;;;;;;;;;33.33;33.33;;;;;-0.81;86.04;101578.44;6183829;23;8782;-72
2022/01/11 11:24:40;;;;;;;;;47.00;43.33;;;;;-0.62;86.33;101584.59;6156428;23;8800;-72
2022/01/11 11:27:35;;;;;;;;;63.67;52.00;;;;;-0.78;85.71;101574.44;6155866;23;8796;-73
2022/01/11 11:30:31;;;;;;;;;50.33;46.00;;;;;-0.76;86.43;101578.59;6154946;23;8793;-72
2022/01/11 11:33:28;;;;;;;;;35.33;33.67;;;;;-0.68;86.54;101585.56;6154558;23;8963;-74
2022/01/11 11:36:25;;;;;;;;;26.33;26.33;;;;;-0.62;86.15;101585.41;6155202;23;8785;-73
2022/01/11 11:39:22;;;;;;;;;30.33;28.33;;;;;-0.58;85.93;101591.22;6155083;23;8808;-73
2022/01/11 11:42:20;;;;;;;;;18.67;18.67;;;;;-0.64;86.36;101581.31;6155012;23;8878;-73
2022/01/11 11:45:23;;;;;;;;;16.00;16.00;;;;;-0.55;85.10;101596.19;6154924;23;8839;-75
2022/01/11 11:48:23;;;;;;;;;21.67;21.67;;;;;-0.55;85.24;101588.03;6154428;23;8800;-74
2022/01/11 11:51:19;;;;;;;;;19.67;18.67;;;;;-0.66;85.72;101599.72;6155050;23;8816;-74
2022/01/11 11:54:20;;;;;;;;;18.00;18.00;;;;;-0.57;85.71;101588.28;6154688;23;8851;-74
2022/01/11 11:57:16;;;;;;;;;19.33;19.33;;;;;-0.41;85.19;101592.19;6155088;23;9555;-74
2022/01/11 12:00:20;;;;;;;;;11.67;11.67;;;;;-0.53;85.38;101596.81;6154174;23;8785;-75
2022/01/11 12:03:16;;;;;;;;;22.67;22.67;;;;;-0.38;85.17;101594.44;6153028;23;8824;-73
2022/01/11 12:06:27;;;;;;;;;12.00;12.00;;;;;-0.63;85.37;101596.53;6152342;23;8911;-73
2022/01/11 12:09:30;;;;;;;;;20.33;20.33;;;;;-0.38;85.21;101599.06;6154874;23;8910;-74
2022/01/11 12:12:54;;;;;;;;;22.00;21.33;;;;;-0.51;85.11;101599.28;6154642;23;8824;-73
2022/01/11 12:15:22;;;;;;;;;14.33;13.00;;;;;-0.52;85.26;101612.03;6163907;23;8797;-73
2022/01/11 12:18:18;;;;;;;;;15.00;13.00;;;;;-0.51;85.39;101613.69;6155064;23;8804;-73
2022/01/11 12:21:13;;;;;;;;;28.33;19.33;;;;;-0.38;85.46;101616.19;6154953;23;8847;-73
2022/01/11 12:24:09;;;;;;;;;40.67;24.33;;;;;-0.45;84.68;101615.47;6180167;23;8813;-74
2022/01/11 12:27:10;;;;;;;;;36.33;28.67;;;;;-0.46;84.33;101621.97;6183283;23;8798;-74
2022/01/11 12:30:08;;;;;;;;;29.33;27.67;;;;;-0.33;84.33;101629.88;6183535;23;8801;-73
2022/01/11 12:33:22;;;;;;;;;19.33;19.33;;;;;-0.26;83.45;101620.78;6182848;23;8859;-73
2022/01/11 12:36:17;;;;;;;;;23.67;23.33;;;;;-0.48;84.03;101629.50;6184197;23;8793;-72
2022/01/11 12:39:13;;;;;;;;;15.00;15.00;;;;;-0.43;83.92;101628.81;6184576;23;8782;-73
2022/01/11 12:42:26;;;;;;;;;16.33;14.33;;;;;-0.58;84.33;101635.53;6183686;23;8863;-73
2022/01/11 12:45:57;;;;;;;;;10.00;9.67;;;;;-0.52;84.21;101641.94;6184670;23;8778;-73
2022/01/11 12:48:58;;;;;;;;;14.33;14.33;;;;;-0.59;85.19;101630.34;6184846;23;8881;-73
2022/01/11 12:51:59;;;;;;;;;7.67;7.67;;;;;-0.60;85.48;101639.56;6185462;23;9302;-74
2022/01/11 12:54:57;;;;;;;;;18.67;18.67;;;;;-0.58;85.37;101640.16;6185581;23;8919;-74
2022/01/11 12:57:54;;;;;;;;;12.00;12.00;;;;;-0.68;85.42;101639.91;6185417;23;8800;-74
2022/01/11 13:00:49;;;;;;;;;19.00;19.00;;;;;-0.74;86.20;101629.97;6184987;23;8818;-74
2022/01/11 13:03:49;;;;;;;;;18.67;18.00;;;;;-0.64;86.03;101641.91;6185325;23;8819;-74
2022/01/11 13:06:47;;;;;;;;;21.67;20.33;;;;;-0.60;85.76;101634.13;6184919;23;8802;-75
2022/01/11 13:09:45;;;;;;;;;31.00;25.67;;;;;-0.47;85.59;101643.94;6165705;23;8809;-74
2022/01/11 13:12:48;;;;;;;;;19.67;19.67;;;;;-0.43;85.44;101647.84;6184592;23;8801;-73
2022/01/11 13:15:48;;;;;;;;;23.67;23.33;;;;;-0.41;85.98;101638.38;6185395;23;8908;-74
2022/01/11 13:18:44;;;;;;;;;20.00;20.00;;;;;-0.55;85.30;101642.38;6165458;23;8824;-74
2022/01/11 13:21:39;;;;;;;;;16.67;12.67;;;;;-0.63;85.88;101643.53;6184631;23;8879;-74
2022/01/11 13:24:38;;;;;;;;;26.33;23.33;;;;;-0.66;86.24;101649.47;6185065;23;8796;-73
2022/01/11 13:27:34;;;;;;;;;25.00;25.00;;;;;-0.62;86.44;101644.38;6184387;23;8831;-73
2022/01/11 13:30:49;;;;;;;;;28.67;28.67;;;;;-0.52;86.02;101649.25;6185477;23;8803;-73
2022/01/11 13:33:50;;;;;;;;;35.00;34.67;;;;;-0.58;86.27;101657.28;6184517;23;9525;-73
2022/01/11 13:36:49;;;;;;;;;23.67;22.67;;;;;-0.75;86.37;101664.44;6165610;23;8858;-75